sensor_id;sensor_type;location;lat;lon;timestamp;pressure;altitude;pressure_sealevel;temperature;humidity
81230;BME280;70701;44.452;18.652;2024-02-23T00:02:18;98104.41;;;11.14;50.56
81230;BME280;70701;44.452;18.652;2024-02-23T00:04:44;98109.53;;;11.15;50.84
81230;BME280;70701;44.452;18.652;2024-02-23T00:07:10;98099.44;;;11.08;51.55
81230;BME280;70701;44.452;18.652;2024-02-23T00:09:36;98097.59;;;10.96;51.71
81230;BME280;70701;44.452;18.652;2024-02-23T00:12:02;98093.09;;;10.99;52.24
81230;BME280;70701;44.452;18.652;2024-02-23T00:14:31;98095.88;;;10.99;51.60
81230;BME280;70701;44.452;18.652;2024-02-23T00:16:57;98093.25;;;10.95;51.96
81230;BME280;70701;44.452;18.652;2024-02-23T00:19:24;98092.00;;;11.05;51.47
81230;BME280;70701;44.452;18.652;2024-02-23T00:21:50;98095.44;;;11.09;51.17
81230;BME280;70701;44.452;18.652;2024-02-23T00:24:17;98097.59;;;10.96;51.93
81230;BME280;70701;44.452;18.652;2024-02-23T00:26:45;98100.03;;;10.94;51.77
81230;BME280;70701;44.452;18.652;2024-02-23T00:29:11;98096.47;;;10.84;51.92
81230;BME280;70701;44.452;18.652;2024-02-23T00:31:40;98098.84;;;11.04;50.98
81230;BME280;70701;44.452;18.652;2024-02-23T00:34:11;98102.25;;;11.08;51.33
81230;BME280;70701;44.452;18.652;2024-02-23T00:36:42;98097.13;;;11.07;51.54
81230;BME280;70701;44.452;18.652;2024-02-23T00:39:08;98093.44;;;11.19;51.02
81230;BME280;70701;44.452;18.652;2024-02-23T00:41:35;98085.38;;;11.12;50.78
81230;BME280;70701;44.452;18.652;2024-02-23T00:44:01;98105.19;;;11.23;50.80
81230;BME280;70701;44.452;18.652;2024-02-23T00:46:27;98108.28;;;11.16;51.24
81230;BME280;70701;44.452;18.652;2024-02-23T00:48:53;98111.84;;;11.07;51.40
81230;BME280;70701;44.452;18.652;2024-02-23T00:51:19;98111.06;;;11.07;51.97
81230;BME280;70701;44.452;18.652;2024-02-23T00:53:45;98112.16;;;11.00;51.90
81230;BME280;70701;44.452;18.652;2024-02-23T00:56:11;98086.91;;;10.95;52.13
81230;BME280;70701;44.452;18.652;2024-02-23T00:58:36;98094.31;;;10.98;51.78
81230;BME280;70701;44.452;18.652;2024-02-23T01:01:02;98109.66;;;11.02;52.13
81230;BME280;70701;44.452;18.652;2024-02-23T01:03:28;98113.50;;;10.96;52.11
81230;BME280;70701;44.452;18.652;2024-02-23T01:05:53;98101.00;;;11.00;52.22
81230;BME280;70701;44.452;18.652;2024-02-23T01:08:19;98104.09;;;11.02;51.86
81230;BME280;70701;44.452;18.652;2024-02-23T01:10:45;98110.91;;;11.01;52.29
81230;BME280;70701;44.452;18.652;2024-02-23T01:13:10;98107.81;;;10.99;52.14
81230;BME280;70701;44.452;18.652;2024-02-23T01:15:36;98089.84;;;11.00;51.95
81230;BME280;70701;44.452;18.652;2024-02-23T01:18:03;98099.16;;;11.16;51.87
81230;BME280;70701;44.452;18.652;2024-02-23T01:20:29;98094.03;;;11.14;52.11
81230;BME280;70701;44.452;18.652;2024-02-23T01:22:54;98098.38;;;11.06;52.32
81230;BME280;70701;44.452;18.652;2024-02-23T01:25:20;98095.28;;;11.04;52.73
81230;BME280;70701;44.452;18.652;2024-02-23T01:27:46;98088.16;;;11.21;52.21
81230;BME280;70701;44.452;18.652;2024-02-23T01:30:11;98079.19;;;11.26;51.76
81230;BME280;70701;44.452;18.652;2024-02-23T01:32:37;98090.81;;;11.25;51.57
81230;BME280;70701;44.452;18.652;2024-02-23T01:35:05;98091.56;;;11.25;51.97
81230;BME280;70701;44.452;18.652;2024-02-23T01:37:31;98087.56;;;11.36;51.63
81230;BME280;70701;44.452;18.652;2024-02-23T01:39:58;98074.22;;;11.31;51.61
81230;BME280;70701;44.452;18.652;2024-02-23T01:42:24;98084.47;;;11.34;51.54
81230;BME280;70701;44.452;18.652;2024-02-23T01:44:51;98081.19;;;11.35;51.47
81230;BME280;70701;44.452;18.652;2024-02-23T01:47:17;98067.09;;;11.39;51.81
81230;BME280;70701;44.452;18.652;2024-02-23T01:49:44;98072.34;;;11.55;50.97
81230;BME280;70701;44.452;18.652;2024-02-23T01:52:11;98073.28;;;11.52;50.97
81230;BME280;70701;44.452;18.652;2024-02-23T01:54:37;98064.91;;;11.43;51.79
81230;BME280;70701;44.452;18.652;2024-02-23T01:57:03;98079.16;;;11.54;51.51
81230;BME280;70701;44.452;18.652;2024-02-23T01:59:29;98070.97;;;11.41;51.76
81230;BME280;70701;44.452;18.652;2024-02-23T02:01:55;98078.53;;;11.50;51.89
81230;BME280;70701;44.452;18.652;2024-02-23T02:04:21;98067.09;;;11.39;52.14
81230;BME280;70701;44.452;18.652;2024-02-23T02:06:47;98078.25;;;11.48;51.55
81230;BME280;70701;44.452;18.652;2024-02-23T02:09:14;98064.84;;;11.89;49.81
81230;BME280;70701;44.452;18.652;2024-02-23T02:11:50;98055.88;;;11.85;49.65
81230;BME280;70701;44.452;18.652;2024-02-23T02:14:16;98066.44;;;11.90;49.59
81230;BME280;70701;44.452;18.652;2024-02-23T02:16:43;98051.22;;;11.82;49.92
81230;BME280;70701;44.452;18.652;2024-02-23T02:19:10;98048.44;;;11.82;50.21
81230;BME280;70701;44.452;18.652;2024-02-23T02:21:36;98061.63;;;11.72;50.23
81230;BME280;70701;44.452;18.652;2024-02-23T02:24:02;98058.69;;;11.66;50.49
81230;BME280;70701;44.452;18.652;2024-02-23T02:26:28;98053.44;;;11.59;50.87
81230;BME280;70701;44.452;18.652;2024-02-23T02:28:54;98049.75;;;11.44;51.19
81230;BME280;70701;44.452;18.652;2024-02-23T02:31:20;98061.97;;;11.46;51.50
81230;BME280;70701;44.452;18.652;2024-02-23T02:33:45;98038.75;;;11.40;51.52
81230;BME280;70701;44.452;18.652;2024-02-23T02:36:11;98050.03;;;11.46;51.75
81230;BME280;70701;44.452;18.652;2024-02-23T02:38:37;98053.59;;;11.46;51.98
81230;BME280;70701;44.452;18.652;2024-02-23T02:41:03;98041.84;;;11.42;51.98
81230;BME280;70701;44.452;18.652;2024-02-23T02:43:29;98045.88;;;11.51;51.57
81230;BME280;70701;44.452;18.652;2024-02-23T02:45:54;98029.53;;;11.77;50.35
81230;BME280;70701;44.452;18.652;2024-02-23T02:48:20;98050.91;;;11.98;49.92
81230;BME280;70701;44.452;18.652;2024-02-23T02:50:45;98044.53;;;11.98;49.84
81230;BME280;70701;44.452;18.652;2024-02-23T02:53:11;98047.81;;;11.78;50.48
81230;BME280;70701;44.452;18.652;2024-02-23T02:55:40;98052.03;;;11.73;50.98
81230;BME280;70701;44.452;18.652;2024-02-23T02:58:06;98048.47;;;11.63;51.49
81230;BME280;70701;44.452;18.652;2024-02-23T03:00:32;98053.88;;;11.67;50.79
81230;BME280;70701;44.452;18.652;2024-02-23T03:02:57;98060.53;;;11.79;50.61
81230;BME280;70701;44.452;18.652;2024-02-23T03:05:23;98047.22;;;11.74;50.78
81230;BME280;70701;44.452;18.652;2024-02-23T03:07:48;98048.00;;;11.65;51.00
81230;BME280;70701;44.452;18.652;2024-02-23T03:10:14;98031.75;;;11.54;51.58
81230;BME280;70701;44.452;18.652;2024-02-23T03:12:40;98040.75;;;11.58;51.63
81230;BME280;70701;44.452;18.652;2024-02-23T03:15:05;98050.94;;;11.61;51.77
81230;BME280;70701;44.452;18.652;2024-02-23T03:17:31;98042.91;;;11.54;52.18
81230;BME280;70701;44.452;18.652;2024-02-23T03:19:58;98020.28;;;11.52;52.21
81230;BME280;70701;44.452;18.652;2024-02-23T03:22:24;98012.13;;;12.00;50.78
81230;BME280;70701;44.452;18.652;2024-02-23T03:24:50;98025.19;;;11.94;50.94
81230;BME280;70701;44.452;18.652;2024-02-23T03:27:15;98019.44;;;11.89;51.29
81230;BME280;70701;44.452;18.652;2024-02-23T03:29:41;98010.94;;;11.92;51.01
81230;BME280;70701;44.452;18.652;2024-02-23T03:32:07;98009.81;;;11.90;51.08
81230;BME280;70701;44.452;18.652;2024-02-23T03:34:32;98014.47;;;11.83;51.80
81230;BME280;70701;44.452;18.652;2024-02-23T03:36:58;98020.81;;;11.84;51.72
81230;BME280;70701;44.452;18.652;2024-02-23T03:39:25;98033.72;;;11.91;51.77
81230;BME280;70701;44.452;18.652;2024-02-23T03:41:51;98012.28;;;11.97;51.79
81230;BME280;70701;44.452;18.652;2024-02-23T03:44:16;98029.31;;;12.08;51.36
81230;BME280;70701;44.452;18.652;2024-02-23T03:46:42;98033.22;;;12.01;51.76
81230;BME280;70701;44.452;18.652;2024-02-23T03:49:08;98007.13;;;12.04;51.80
81230;BME280;70701;44.452;18.652;2024-02-23T03:51:33;98022.63;;;12.15;52.10
81230;BME280;70701;44.452;18.652;2024-02-23T03:54:02;98013.94;;;12.13;51.91
81230;BME280;70701;44.452;18.652;2024-02-23T03:56:28;98016.91;;;12.09;52.00
81230;BME280;70701;44.452;18.652;2024-02-23T03:58:54;98016.31;;;12.05;52.15
81230;BME280;70701;44.452;18.652;2024-02-23T04:01:19;97996.56;;;12.09;52.32
81230;BME280;70701;44.452;18.652;2024-02-23T04:03:45;98015.19;;;12.12;51.88
81230;BME280;70701;44.452;18.652;2024-02-23T04:06:10;98012.84;;;12.10;51.91
81230;BME280;70701;44.452;18.652;2024-02-23T04:08:36;98004.19;;;12.08;52.40
81230;BME280;70701;44.452;18.652;2024-02-23T04:11:01;98006.66;;;12.06;52.21
81230;BME280;70701;44.452;18.652;2024-02-23T04:13:27;98009.03;;;11.98;52.53
81230;BME280;70701;44.452;18.652;2024-02-23T04:15:52;98012.72;;;12.04;52.61
81230;BME280;70701;44.452;18.652;2024-02-23T04:18:18;97997.28;;;11.94;52.95
81230;BME280;70701;44.452;18.652;2024-02-23T04:20:44;98002.84;;;11.94;53.17
81230;BME280;70701;44.452;18.652;2024-02-23T04:23:09;98002.69;;;11.89;52.85
81230;BME280;70701;44.452;18.652;2024-02-23T04:25:35;97993.84;;;11.99;52.65
81230;BME280;70701;44.452;18.652;2024-02-23T04:28:01;97993.72;;;11.84;52.73
81230;BME280;70701;44.452;18.652;2024-02-23T04:30:26;98012.63;;;11.90;52.97
81230;BME280;70701;44.452;18.652;2024-02-23T04:32:52;98000.06;;;11.85;53.06
81230;BME280;70701;44.452;18.652;2024-02-23T04:35:18;98003.78;;;11.82;53.44
81230;BME280;70701;44.452;18.652;2024-02-23T04:37:44;97997.13;;;11.79;53.39
81230;BME280;70701;44.452;18.652;2024-02-23T04:40:10;97986.44;;;11.78;53.56
81230;BME280;70701;44.452;18.652;2024-02-23T04:42:37;98000.38;;;11.78;53.64
81230;BME280;70701;44.452;18.652;2024-02-23T04:45:03;97984.56;;;11.84;53.46
81230;BME280;70701;44.452;18.652;2024-02-23T04:47:28;97976.63;;;11.92;53.81
81230;BME280;70701;44.452;18.652;2024-02-23T04:49:54;97980.06;;;11.86;53.89
81230;BME280;70701;44.452;18.652;2024-02-23T04:52:20;97977.44;;;11.83;53.82
81230;BME280;70701;44.452;18.652;2024-02-23T04:54:45;97967.38;;;11.76;54.37
81230;BME280;70701;44.452;18.652;2024-02-23T04:57:11;97979.97;;;11.72;53.89
81230;BME280;70701;44.452;18.652;2024-02-23T04:59:36;97975.47;;;11.65;54.00
81230;BME280;70701;44.452;18.652;2024-02-23T05:02:02;97970.63;;;11.75;53.01
81230;BME280;70701;44.452;18.652;2024-02-23T05:04:29;97975.06;;;12.00;52.05
81230;BME280;70701;44.452;18.652;2024-02-23T05:06:56;97989.66;;;11.95;52.30
81230;BME280;70701;44.452;18.652;2024-02-23T05:09:21;97980.81;;;11.87;52.84
81230;BME280;70701;44.452;18.652;2024-02-23T05:11:47;97976.69;;;11.82;52.91
81230;BME280;70701;44.452;18.652;2024-02-23T05:14:13;97972.78;;;11.80;52.85
81230;BME280;70701;44.452;18.652;2024-02-23T05:16:39;97961.97;;;11.73;53.39
81230;BME280;70701;44.452;18.652;2024-02-23T05:19:04;97967.69;;;11.78;52.56
81230;BME280;70701;44.452;18.652;2024-02-23T05:21:30;97981.09;;;12.08;51.70
81230;BME280;70701;44.452;18.652;2024-02-23T05:23:57;97974.59;;;12.01;51.56
81230;BME280;70701;44.452;18.652;2024-02-23T05:26:22;97987.59;;;12.04;51.32
81230;BME280;70701;44.452;18.652;2024-02-23T05:28:48;97983.91;;;11.98;50.67
81230;BME280;70701;44.452;18.652;2024-02-23T05:31:14;97984.00;;;12.13;50.46
81230;BME280;70701;44.452;18.652;2024-02-23T05:33:40;97982.41;;;12.21;49.90
81230;BME280;70701;44.452;18.652;2024-02-23T05:36:06;97986.41;;;12.30;49.47
81230;BME280;70701;44.452;18.652;2024-02-23T05:38:32;97987.63;;;12.29;49.01
81230;BME280;70701;44.452;18.652;2024-02-23T05:40:58;97985.25;;;12.36;48.32
81230;BME280;70701;44.452;18.652;2024-02-23T05:43:23;97991.56;;;12.70;46.90
81230;BME280;70701;44.452;18.652;2024-02-23T05:45:49;98003.34;;;12.74;46.50
81230;BME280;70701;44.452;18.652;2024-02-23T05:48:14;98008.28;;;12.79;46.77
81230;BME280;70701;44.452;18.652;2024-02-23T05:50:40;98002.38;;;12.77;46.63
81230;BME280;70701;44.452;18.652;2024-02-23T05:53:06;98010.13;;;12.82;46.14
81230;BME280;70701;44.452;18.652;2024-02-23T05:55:31;98008.84;;;13.08;44.86
81230;BME280;70701;44.452;18.652;2024-02-23T05:57:57;98005.94;;;13.02;44.79
81230;BME280;70701;44.452;18.652;2024-02-23T06:00:22;98021.94;;;13.01;44.88
81230;BME280;70701;44.452;18.652;2024-02-23T06:02:48;98031.09;;;13.02;44.58
81230;BME280;70701;44.452;18.652;2024-02-23T06:05:14;98033.34;;;12.89;45.45
81230;BME280;70701;44.452;18.652;2024-02-23T06:07:41;98039.59;;;12.83;45.81
81230;BME280;70701;44.452;18.652;2024-02-23T06:10:07;98031.72;;;12.97;45.01
81230;BME280;70701;44.452;18.652;2024-02-23T06:12:32;98030.28;;;12.87;45.07
81230;BME280;70701;44.452;18.652;2024-02-23T06:14:58;98023.16;;;13.00;44.29
81230;BME280;70701;44.452;18.652;2024-02-23T06:17:24;98031.72;;;12.97;44.75
81230;BME280;70701;44.452;18.652;2024-02-23T06:19:50;98028.00;;;13.00;44.31
81230;BME280;70701;44.452;18.652;2024-02-23T06:22:18;98050.06;;;12.98;44.45
81230;BME280;70701;44.452;18.652;2024-02-23T06:24:47;98046.22;;;12.95;44.51
81230;BME280;70701;44.452;18.652;2024-02-23T06:27:12;98035.31;;;12.97;44.62
81230;BME280;70701;44.452;18.652;2024-02-23T06:29:38;98030.59;;;13.03;44.42
81230;BME280;70701;44.452;18.652;2024-02-23T06:32:04;98042.19;;;13.11;43.88
81230;BME280;70701;44.452;18.652;2024-02-23T06:34:30;98041.84;;;12.94;43.96
81230;BME280;70701;44.452;18.652;2024-02-23T06:36:55;98057.63;;;13.07;44.35
81230;BME280;70701;44.452;18.652;2024-02-23T06:39:21;98048.16;;;13.04;44.34
81230;BME280;70701;44.452;18.652;2024-02-23T06:41:47;98047.78;;;13.11;43.97
81230;BME280;70701;44.452;18.652;2024-02-23T06:44:12;98053.78;;;13.19;42.69
81230;BME280;70701;44.452;18.652;2024-02-23T06:46:38;98056.66;;;13.10;43.69
81230;BME280;70701;44.452;18.652;2024-02-23T06:49:03;98048.72;;;12.93;43.69
81230;BME280;70701;44.452;18.652;2024-02-23T06:51:31;98047.13;;;13.16;42.36
81230;BME280;70701;44.452;18.652;2024-02-23T06:53:57;98054.47;;;13.14;42.95
81230;BME280;70701;44.452;18.652;2024-02-23T06:56:23;98053.28;;;13.06;43.57
81230;BME280;70701;44.452;18.652;2024-02-23T06:58:49;98053.97;;;12.91;44.33
81230;BME280;70701;44.452;18.652;2024-02-23T07:01:14;98043.66;;;13.07;42.47
81230;BME280;70701;44.452;18.652;2024-02-23T07:03:40;98031.38;;;13.04;42.32
81230;BME280;70701;44.452;18.652;2024-02-23T07:06:08;98050.66;;;13.02;42.89
81230;BME280;70701;44.452;18.652;2024-02-23T07:08:35;98054.72;;;13.01;42.71
81230;BME280;70701;44.452;18.652;2024-02-23T07:11:01;98048.25;;;13.10;42.41
81230;BME280;70701;44.452;18.652;2024-02-23T07:13:27;98051.28;;;13.21;42.31
81230;BME280;70701;44.452;18.652;2024-02-23T07:15:52;98032.22;;;13.19;41.71
81230;BME280;70701;44.452;18.652;2024-02-23T07:18:18;98056.03;;;13.30;41.68
81230;BME280;70701;44.452;18.652;2024-02-23T07:20:44;98051.81;;;13.34;41.87
81230;BME280;70701;44.452;18.652;2024-02-23T07:23:09;98052.84;;;13.22;42.28
81230;BME280;70701;44.452;18.652;2024-02-23T07:25:35;98049.47;;;13.18;42.22
81230;BME280;70701;44.452;18.652;2024-02-23T07:28:01;98053.59;;;13.22;41.78
81230;BME280;70701;44.452;18.652;2024-02-23T07:30:26;98057.28;;;13.29;42.44
81230;BME280;70701;44.452;18.652;2024-02-23T07:32:52;98052.38;;;13.23;43.16
81230;BME280;70701;44.452;18.652;2024-02-23T07:35:17;98044.91;;;13.20;43.08
81230;BME280;70701;44.452;18.652;2024-02-23T07:37:43;98045.22;;;13.22;43.22
81230;BME280;70701;44.452;18.652;2024-02-23T07:40:09;98051.28;;;13.21;43.18
81230;BME280;70701;44.452;18.652;2024-02-23T07:42:35;98048.00;;;13.22;43.48
81230;BME280;70701;44.452;18.652;2024-02-23T07:45:04;98046.19;;;13.19;43.17
81230;BME280;70701;44.452;18.652;2024-02-23T07:47:31;98046.09;;;13.14;43.82
81230;BME280;70701;44.452;18.652;2024-02-23T07:49:57;98045.16;;;13.32;42.54
81230;BME280;70701;44.452;18.652;2024-02-23T07:52:22;98033.06;;;13.50;42.58
81230;BME280;70701;44.452;18.652;2024-02-23T07:54:54;98045.38;;;13.43;42.59
81230;BME280;70701;44.452;18.652;2024-02-23T07:57:20;98038.13;;;13.51;42.57
81230;BME280;70701;44.452;18.652;2024-02-23T07:59:46;98047.16;;;13.55;42.92
81230;BME280;70701;44.452;18.652;2024-02-23T08:02:12;98039.78;;;13.43;42.99
81230;BME280;70701;44.452;18.652;2024-02-23T08:04:37;98051.34;;;13.36;43.03
81230;BME280;70701;44.452;18.652;2024-02-23T08:07:04;98044.50;;;13.37;43.25
81230;BME280;70701;44.452;18.652;2024-02-23T08:09:29;98037.41;;;13.27;43.79
81230;BME280;70701;44.452;18.652;2024-02-23T08:11:55;98006.44;;;13.15;43.91
81230;BME280;70701;44.452;18.652;2024-02-23T08:14:21;98030.34;;;13.40;43.91
81230;BME280;70701;44.452;18.652;2024-02-23T08:16:46;98037.28;;;13.45;43.78
81230;BME280;70701;44.452;18.652;2024-02-23T08:19:12;98034.38;;;13.54;43.59
81230;BME280;70701;44.452;18.652;2024-02-23T08:21:38;98017.31;;;13.52;43.10
81230;BME280;70701;44.452;18.652;2024-02-23T08:24:04;98018.97;;;13.44;44.36
81230;BME280;70701;44.452;18.652;2024-02-23T08:26:30;98020.50;;;13.45;44.53
81230;BME280;70701;44.452;18.652;2024-02-23T08:28:56;98002.94;;;13.45;45.54
81230;BME280;70701;44.452;18.652;2024-02-23T08:31:21;98018.16;;;13.44;45.68
81230;BME280;70701;44.452;18.652;2024-02-23T08:33:47;98016.34;;;13.40;46.61
81230;BME280;70701;44.452;18.652;2024-02-23T08:36:13;98009.22;;;13.54;44.87
81230;BME280;70701;44.452;18.652;2024-02-23T08:38:38;97998.03;;;13.54;44.64
81230;BME280;70701;44.452;18.652;2024-02-23T08:41:04;98000.16;;;13.59;43.72
81230;BME280;70701;44.452;18.652;2024-02-23T08:43:30;97998.03;;;13.69;49.18
81230;BME280;70701;44.452;18.652;2024-02-23T08:45:55;98003.91;;;13.71;43.79
81230;BME280;70701;44.452;18.652;2024-02-23T08:48:21;98009.41;;;13.66;43.73
81230;BME280;70701;44.452;18.652;2024-02-23T08:50:46;98002.06;;;13.68;43.27
81230;BME280;70701;44.452;18.652;2024-02-23T08:53:12;97992.63;;;13.51;43.44
81230;BME280;70701;44.452;18.652;2024-02-23T08:55:38;98013.56;;;13.70;43.71
81230;BME280;70701;44.452;18.652;2024-02-23T08:58:03;98010.25;;;13.72;43.87
81230;BME280;70701;44.452;18.652;2024-02-23T09:00:32;98020.88;;;13.68;43.63
81230;BME280;70701;44.452;18.652;2024-02-23T09:02:58;98008.75;;;13.71;43.92
81230;BME280;70701;44.452;18.652;2024-02-23T09:05:25;98022.72;;;13.71;42.90
81230;BME280;70701;44.452;18.652;2024-02-23T09:07:50;98016.56;;;13.82;43.00
81230;BME280;70701;44.452;18.652;2024-02-23T09:10:18;98037.50;;;13.86;42.72
81230;BME280;70701;44.452;18.652;2024-02-23T09:12:44;98041.34;;;13.89;42.45
81230;BME280;70701;44.452;18.652;2024-02-23T09:15:09;98044.84;;;13.98;42.58
81230;BME280;70701;44.452;18.652;2024-02-23T09:17:36;98031.97;;;13.92;42.70
81230;BME280;70701;44.452;18.652;2024-02-23T09:20:02;98047.34;;;13.82;42.79
81230;BME280;70701;44.452;18.652;2024-02-23T09:22:28;98044.34;;;13.85;42.90
81230;BME280;70701;44.452;18.652;2024-02-23T09:24:54;98048.13;;;13.82;42.92
81230;BME280;70701;44.452;18.652;2024-02-23T09:27:21;98058.22;;;13.94;42.25
81230;BME280;70701;44.452;18.652;2024-02-23T09:29:48;98051.97;;;13.99;42.13
81230;BME280;70701;44.452;18.652;2024-02-23T09:32:14;98042.69;;;14.08;41.87
81230;BME280;70701;44.452;18.652;2024-02-23T09:34:40;98055.94;;;14.08;41.96
81230;BME280;70701;44.452;18.652;2024-02-23T09:37:05;98056.41;;;14.06;42.29
81230;BME280;70701;44.452;18.652;2024-02-23T09:39:32;98052.53;;;14.04;43.16
81230;BME280;70701;44.452;18.652;2024-02-23T09:41:58;98048.78;;;14.07;42.45
81230;BME280;70701;44.452;18.652;2024-02-23T09:44:31;98045.50;;;14.08;42.54
81230;BME280;70701;44.452;18.652;2024-02-23T09:47:00;98044.41;;;14.06;43.08
81230;BME280;70701;44.452;18.652;2024-02-23T09:49:37;98038.34;;;13.92;43.67
81230;BME280;70701;44.452;18.652;2024-02-23T09:52:06;98043.56;;;13.99;43.44
81230;BME280;70701;44.452;18.652;2024-02-23T09:54:32;98053.31;;;14.04;43.41
81230;BME280;70701;44.452;18.652;2024-02-23T09:56:58;98043.94;;;14.07;43.22
81230;BME280;70701;44.452;18.652;2024-02-23T09:59:24;98028.59;;;14.03;43.33
81230;BME280;70701;44.452;18.652;2024-02-23T10:01:53;98038.72;;;14.15;43.61
81230;BME280;70701;44.452;18.652;2024-02-23T10:04:19;98037.47;;;14.16;43.62
81230;BME280;70701;44.452;18.652;2024-02-23T10:06:45;98045.47;;;14.23;43.43
81230;BME280;70701;44.452;18.652;2024-02-23T10:09:10;98043.91;;;14.22;43.65
81230;BME280;70701;44.452;18.652;2024-02-23T10:11:38;98042.94;;;14.25;44.03
81230;BME280;70701;44.452;18.652;2024-02-23T10:14:04;98031.84;;;14.16;43.35
81230;BME280;70701;44.452;18.652;2024-02-23T10:16:30;98025.13;;;14.08;42.71
81230;BME280;70701;44.452;18.652;2024-02-23T10:18:57;98016.53;;;13.96;44.00
81230;BME280;70701;44.452;18.652;2024-02-23T10:21:23;98039.00;;;14.17;44.92
81230;BME280;70701;44.452;18.652;2024-02-23T10:23:50;98033.31;;;14.11;44.71
81230;BME280;70701;44.452;18.652;2024-02-23T10:26:17;98013.25;;;13.98;45.67
81230;BME280;70701;44.452;18.652;2024-02-23T10:28:45;98022.16;;;13.96;46.89
81230;BME280;70701;44.452;18.652;2024-02-23T10:31:11;98025.91;;;13.93;46.92
81230;BME280;70701;44.452;18.652;2024-02-23T10:33:37;98028.59;;;13.88;47.15
81230;BME280;70701;44.452;18.652;2024-02-23T10:36:04;98009.41;;;13.80;47.76
81230;BME280;70701;44.452;18.652;2024-02-23T10:38:32;98009.13;;;13.78;47.59
81230;BME280;70701;44.452;18.652;2024-02-23T10:40:58;98022.53;;;13.89;47.25
81230;BME280;70701;44.452;18.652;2024-02-23T10:43:33;98026.19;;;13.80;48.69
81230;BME280;70701;44.452;18.652;2024-02-23T10:46:01;98033.72;;;13.74;49.84
81230;BME280;70701;44.452;18.652;2024-02-23T10:48:29;98026.28;;;13.86;46.86
81230;BME280;70701;44.452;18.652;2024-02-23T10:50:58;98020.22;;;13.73;47.11
81230;BME280;70701;44.452;18.652;2024-02-23T10:53:24;98024.44;;;13.68;47.60
81230;BME280;70701;44.452;18.652;2024-02-23T10:55:56;98017.13;;;13.56;47.55
81230;BME280;70701;44.452;18.652;2024-02-23T10:58:25;98019.75;;;13.59;48.03
81230;BME280;70701;44.452;18.652;2024-02-23T11:00:50;98011.22;;;13.39;49.82
81230;BME280;70701;44.452;18.652;2024-02-23T11:03:17;98013.09;;;13.42;49.66
81230;BME280;70701;44.452;18.652;2024-02-23T11:05:47;98019.25;;;13.46;50.05
81230;BME280;70701;44.452;18.652;2024-02-23T11:08:13;98015.38;;;13.44;51.33
81230;BME280;70701;44.452;18.652;2024-02-23T11:10:43;98014.59;;;13.43;50.26
81230;BME280;70701;44.452;18.652;2024-02-23T11:13:15;98013.09;;;13.42;51.41
81230;BME280;70701;44.452;18.652;2024-02-23T11:15:43;98016.63;;;13.43;53.25
81230;BME280;70701;44.452;18.652;2024-02-23T11:18:29;98013.84;;;13.43;51.06
81230;BME280;70701;44.452;18.652;2024-02-23T11:20:55;98005.34;;;13.37;52.16
81230;BME280;70701;44.452;18.652;2024-02-23T11:23:22;97991.91;;;13.26;53.16
81230;BME280;70701;44.452;18.652;2024-02-23T11:28:31;97983.50;;;13.26;54.15
81230;BME280;70701;44.452;18.652;2024-02-23T11:30:57;97982.44;;;13.23;54.39
81230;BME280;70701;44.452;18.652;2024-02-23T11:33:34;97965.38;;;13.21;53.95
81230;BME280;70701;44.452;18.652;2024-02-23T11:36:09;97965.50;;;13.27;54.20
81230;BME280;70701;44.452;18.652;2024-02-23T11:38:35;97958.44;;;13.17;57.16
81230;BME280;70701;44.452;18.652;2024-02-23T11:41:02;97954.75;;;13.11;56.92
81230;BME280;70701;44.452;18.652;2024-02-23T11:43:29;97955.13;;;13.03;57.21
81230;BME280;70701;44.452;18.652;2024-02-23T11:45:55;97958.03;;;13.09;55.07
81230;BME280;70701;44.452;18.652;2024-02-23T11:48:21;97950.78;;;13.02;56.88
81230;BME280;70701;44.452;18.652;2024-02-23T11:50:50;97922.94;;;12.93;57.63
81230;BME280;70701;44.452;18.652;2024-02-23T11:53:16;97932.38;;;12.96;57.90
81230;BME280;70701;44.452;18.652;2024-02-23T11:55:42;97934.22;;;12.99;57.40
81230;BME280;70701;44.452;18.652;2024-02-23T11:58:08;97937.78;;;12.99;57.91
81230;BME280;70701;44.452;18.652;2024-02-23T12:00:34;97928.31;;;12.97;57.78
81230;BME280;70701;44.452;18.652;2024-02-23T12:03:00;97923.16;;;13.05;56.44
81230;BME280;70701;44.452;18.652;2024-02-23T12:05:26;97930.00;;;13.18;55.57
81230;BME280;70701;44.452;18.652;2024-02-23T12:07:52;97912.72;;;13.20;56.19
81230;BME280;70701;44.452;18.652;2024-02-23T12:10:18;97910.41;;;13.18;55.76
81230;BME280;70701;44.452;18.652;2024-02-23T12:12:44;97891.81;;;13.30;53.15
81230;BME280;70701;44.452;18.652;2024-02-23T12:15:10;97893.75;;;13.54;48.58
81230;BME280;70701;44.452;18.652;2024-02-23T12:17:36;97907.34;;;13.61;49.64
81230;BME280;70701;44.452;18.652;2024-02-23T12:20:02;97901.22;;;13.63;50.95
81230;BME280;70701;44.452;18.652;2024-02-23T12:22:28;97898.16;;;13.60;50.92
81230;BME280;70701;44.452;18.652;2024-02-23T12:24:57;97896.81;;;13.56;50.84
81230;BME280;70701;44.452;18.652;2024-02-23T12:27:23;97901.16;;;13.57;49.51
81230;BME280;70701;44.452;18.652;2024-02-23T12:29:52;97911.00;;;13.67;50.02
81230;BME280;70701;44.452;18.652;2024-02-23T12:32:20;97901.84;;;13.67;50.63
81230;BME280;70701;44.452;18.652;2024-02-23T12:34:47;97902.88;;;13.69;51.61
81230;BME280;70701;44.452;18.652;2024-02-23T12:37:16;97903.16;;;13.71;50.45
81230;BME280;70701;44.452;18.652;2024-02-23T12:39:46;97888.59;;;13.67;50.89
81230;BME280;70701;44.452;18.652;2024-02-23T12:42:12;97880.59;;;13.60;50.24
81230;BME280;70701;44.452;18.652;2024-02-23T12:44:37;97881.88;;;13.59;50.80
81230;BME280;70701;44.452;18.652;2024-02-23T12:47:03;97881.16;;;13.64;48.82
81230;BME280;70701;44.452;18.652;2024-02-23T12:49:29;97870.25;;;13.66;47.13